Time,TemperatureF,DewpointF,PressureIn,WindDirection,WindDirectionDegrees,WindSpeedMPH,WindSpeedGustMPH,Humidity,HourlyPrecipIn,Conditions,Clouds,dailyrainin,SoftwareType,DateUTC
2013-08-19 00:00:00,75.4,74.5,29.99,North,10,0.0,5.0,97,0.00,,,0.00,VWS V14.01,2013-08-19 04:00:00,
2013-08-19 00:01:00,75.4,74.5,29.99,North,10,0.0,5.0,97,0.00,,,0.34,VWS V14.01,2013-08-19 04:01:00,
2013-08-19 00:06:00,75.4,74.5,29.99,North,9,0.0,1.0,97,0.00,,,0.00,VWS V14.01,2013-08-19 04:06:00,
2013-08-19 00:11:00,75.3,74.4,29.99,North,11,0.0,2.0,97,0.00,,,0.00,VWS V14.01,2013-08-19 04:11:00,
2013-08-19 00:16:00,75.3,74.4,29.98,North,11,0.0,2.0,97,0.00,,,0.00,VWS V14.01,2013-08-19 04:16:00,
2013-08-19 00:21:00,75.3,74.4,29.98,North,11,0.0,2.0,97,0.00,,,0.00,VWS V14.01,2013-08-19 04:21:00,
2013-08-19 00:26:00,75.3,74.4,29.98,North,11,0.0,2.0,97,0.00,,,0.00,VWS V14.01,2013-08-19 04:26:00,
2013-08-19 00:30:00,75.3,74.4,29.98,North,11,0.0,2.0,97,0.00,,,0.00,VWS V14.01,2013-08-19 04:30:00,
2013-08-19 00:31:00,75.3,74.4,29.98,North,11,0.0,0.0,97,0.00,,,0.00,VWS V14.01,2013-08-19 04:31:00,
2013-08-19 00:36:00,75.3,74.4,29.98,North,11,0.0,2.0,97,0.00,,,0.00,VWS V14.01,2013-08-19 04:36:00,
2013-08-19 00:41:00,75.4,74.5,29.98,NNE,16,0.0,2.0,97,0.00,,,0.00,VWS V14.01,2013-08-19 04:41:00,
2013-08-19 00:46:00,75.6,74.7,29.97,NE,38,2.0,3.0,97,0.00,,,0.00,VWS V14.01,2013-08-19 04:46:00,
2013-08-19 00:51:00,75.6,74.7,29.97,NE,40,0.0,3.0,97,0.00,,,0.00,VWS V14.01,2013-08-19 04:51:00,
2013-08-19 00:56:00,75.6,74.7,29.97,NE,39,0.0,3.0,97,0.00,,,0.00,VWS V14.01,2013-08-19 04:56:00,
2013-08-19 01:00:00,75.6,74.7,29.97,NE,39,0.0,3.0,97,0.00,,,0.00,VWS V14.01,2013-08-19 05:00:00,
2013-08-19 01:01:00,75.6,74.7,29.97,NE,39,0.0,3.0,97,0.00,,,0.00,VWS V14.01,2013-08-19 05:01:00,
2013-08-19 01:06:00,75.8,74.9,29.97,North,360,0.0,4.0,97,0.00,,,0.00,VWS V14.01,2013-08-19 05:06:00,
2013-08-19 01:11:00,75.8,74.9,29.97,North,360,0.0,4.0,97,0.00,,,0.00,VWS V14.01,2013-08-19 05:11:00,
2013-08-19 01:16:00,75.6,74.7,29.98,ESE,113,0.0,4.0,97,0.00,,,0.00,VWS V14.01,2013-08-19 05:16:00,
2013-08-19 01:21:00,75.6,74.7,29.98,South,183,4.0,5.0,97,0.00,,,0.00,VWS V14.01,2013-08-19 05:21:00,
2013-08-19 01:26:00,75.6,74.7,29.98,SW,231,0.0,6.0,97,0.00,,,0.00,VWS V14.01,2013-08-19 05:26:00,
2013-08-19 01:30:00,75.6,74.7,29.98,SW,221,0.0,6.0,97,0.00,,,0.00,VWS V14.01,2013-08-19 05:30:00,
2013-08-19 01:31:00,75.6,74.7,29.98,SW,221,0.0,6.0,97,0.00,,,0.00,VWS V14.01,2013-08-19 05:31:00,
2013-08-19 01:36:00,75.8,74.9,29.98,SW,215,0.0,2.0,97,0.00,,,0.00,VWS V14.01,2013-08-19 05:36:00,
2013-08-19 01:41:00,75.8,74.9,29.98,SSW,213,0.0,2.0,97,0.00,,,0.00,VWS V14.01,2013-08-19 05:41:00,
2013-08-19 01:46:00,75.8,74.9,29.97,SSW,213,0.0,2.0,97,0.00,,,0.00,VWS V14.01,2013-08-19 05:46:00,
2013-08-19 01:51:00,75.6,74.7,29.97,SW,214,0.0,3.0,97,0.00,,,0.00,VWS V14.01,2013-08-19 05:51:00,
2013-08-19 01:56:00,75.8,74.9,29.97,South,182,0.0,3.0,97,0.00,,,0.00,VWS V14.01,2013-08-19 05:56:00,
2013-08-19 02:00:00,75.8,74.9,29.96,South,170,0.0,3.0,97,0.00,,,0.00,VWS V14.01,2013-08-19 06:00:00,
2013-08-19 02:01:00,75.8,74.9,29.96,South,169,0.0,3.0,97,0.00,,,0.00,VWS V14.01,2013-08-19 06:01:00,
2013-08-19 02:06:00,75.8,74.9,29.96,SSE,161,0.0,5.0,97,0.00,,,0.00,VWS V14.01,2013-08-19 06:06:00,
2013-08-19 02:11:00,75.6,74.7,29.96,ESE,117,0.0,5.0,97,0.00,,,0.00,VWS V14.01,2013-08-19 06:11:00,
2013-08-19 02:16:00,75.4,74.5,29.94,SE,126,0.0,5.0,97,0.00,,,0.00,VWS V14.01,2013-08-19 06:16:00,
2013-08-19 02:21:00,75.4,74.5,29.94,ESE,121,0.0,5.0,97,0.00,,,0.00,VWS V14.01,2013-08-19 06:21:00,
2013-08-19 02:26:00,75.3,74.1,29.94,SE,138,2.0,5.0,96,0.00,,,0.00,VWS V14.01,2013-08-19 06:26:00,
2013-08-19 02:30:00,75.3,74.1,29.93,ESE,105,0.0,6.0,96,0.00,,,0.00,VWS V14.01,2013-08-19 06:30:00,
2013-08-19 02:31:00,75.3,74.1,29.93,ESE,104,0.0,6.0,96,0.00,,,0.00,VWS V14.01,2013-08-19 06:31:00,
2013-08-19 02:36:00,75.1,73.9,29.93,East,98,2.0,5.0,96,0.00,,,0.00,VWS V14.01,2013-08-19 06:36:00,
2013-08-19 02:41:00,75.1,73.9,29.93,East,100,0.0,5.0,96,0.00,,,0.00,VWS V14.01,2013-08-19 06:41:00,
2013-08-19 02:46:00,75.1,73.9,29.92,East,101,0.0,5.0,96,0.00,,,0.00,VWS V14.01,2013-08-19 06:46:00,
2013-08-19 02:51:00,75.3,74.1,29.92,East,99,0.0,5.0,96,0.00,,,0.00,VWS V14.01,2013-08-19 06:51:00,
2013-08-19 02:56:00,75.1,73.9,29.92,East,98,0.0,5.0,96,0.00,,,0.00,VWS V14.01,2013-08-19 06:56:00,
2013-08-19 03:00:00,75.3,74.1,29.92,East,100,0.0,5.0,96,0.00,,,0.00,VWS V14.01,2013-08-19 07:00:00,
2013-08-19 03:01:00,75.3,74.1,29.92,East,99,0.0,5.0,96,0.00,,,0.00,VWS V14.01,2013-08-19 07:01:00,
2013-08-19 03:06:00,75.4,74.5,29.92,East,100,0.0,1.0,97,0.00,,,0.00,VWS V14.01,2013-08-19 07:06:00,
2013-08-19 03:11:00,75.4,74.5,29.92,East,98,0.0,3.0,97,0.00,,,0.00,VWS V14.01,2013-08-19 07:11:00,
2013-08-19 03:16:00,75.6,74.7,29.91,East,99,0.0,4.0,97,0.00,,,0.00,VWS V14.01,2013-08-19 07:16:00,
2013-08-19 03:21:00,75.6,74.7,29.91,East,101,2.0,4.0,97,0.00,,,0.00,VWS V14.01,2013-08-19 07:21:00,
2013-08-19 03:26:00,75.6,74.7,29.91,East,101,0.0,4.0,97,0.00,,,0.00,VWS V14.01,2013-08-19 07:26:00,
2013-08-19 03:30:00,75.6,74.7,29.90,East,100,0.0,4.0,97,0.00,,,0.00,VWS V14.01,2013-08-19 07:30:00,
2013-08-19 03:31:00,75.6,74.7,29.90,East,100,0.0,4.0,97,0.00,,,0.00,VWS V14.01,2013-08-19 07:31:00,
2013-08-19 03:36:00,75.6,74.7,29.90,East,99,0.0,0.0,97,0.00,,,0.00,VWS V14.01,2013-08-19 07:36:00,
2013-08-19 03:41:00,75.4,74.5,29.90,East,101,0.0,0.0,97,0.00,,,0.00,VWS V14.01,2013-08-19 07:41:00,
2013-08-19 03:46:00,75.4,74.5,29.90,East,101,0.0,0.0,97,0.00,,,0.00,VWS V14.01,2013-08-19 07:46:00,
2013-08-19 03:50:00,75.3,74.4,29.90,East,101,0.0,0.0,97,0.00,,,0.00,VWS V14.01,2013-08-19 07:50:00,
2013-08-19 03:55:00,75.1,74.2,29.90,East,101,0.0,1.0,97,0.00,,,0.00,VWS V14.01,2013-08-19 07:55:00,
2013-08-19 04:00:00,75.1,74.2,29.91,East,101,0.0,1.0,97,0.00,,,0.00,VWS V14.01,2013-08-19 08:00:00,
2013-08-19 04:05:00,74.9,74.0,29.91,East,100,0.0,0.0,97,0.00,,,0.00,VWS V14.01,2013-08-19 08:05:00,
2013-08-19 04:10:00,74.9,74.0,29.91,East,101,0.0,0.0,97,0.00,,,0.00,VWS V14.01,2013-08-19 08:10:00,
2013-08-19 04:15:00,74.9,74.0,29.90,East,99,0.0,0.0,97,0.00,,,0.00,VWS V14.01,2013-08-19 08:15:00,
2013-08-19 04:20:00,74.7,73.8,29.90,East,99,0.0,0.0,97,0.00,,,0.00,VWS V14.01,2013-08-19 08:20:00,
2013-08-19 04:25:00,74.7,73.8,29.90,East,99,0.0,0.0,97,0.00,,,0.00,VWS V14.01,2013-08-19 08:25:00,
2013-08-19 04:30:00,74.7,73.8,29.90,East,99,0.0,0.0,97,0.00,,,0.00,VWS V14.01,2013-08-19 08:30:00,
2013-08-19 04:35:00,74.7,73.8,29.90,East,101,0.0,0.0,97,0.00,,,0.00,VWS V14.01,2013-08-19 08:35:00,
2013-08-19 04:40:00,74.7,73.8,29.90,East,99,0.0,0.0,97,0.00,,,0.00,VWS V14.01,2013-08-19 08:40:00,
2013-08-19 04:45:00,74.7,73.8,29.90,East,101,0.0,0.0,97,0.00,,,0.00,VWS V14.01,2013-08-19 08:45:00,
2013-08-19 04:50:00,74.7,73.8,29.90,East,101,0.0,0.0,97,0.00,,,0.00,VWS V14.01,2013-08-19 08:50:00,
2013-08-19 04:55:00,74.7,73.8,29.90,East,100,0.0,1.0,97,0.00,,,0.00,VWS V14.01,2013-08-19 08:55:00,
2013-08-19 05:00:00,74.7,74.1,29.90,East,98,0.0,1.0,98,0.00,,,0.00,VWS V14.01,2013-08-19 09:00:00,
2013-08-19 05:05:00,74.7,73.8,29.90,East,98,0.0,1.0,97,0.00,,,0.00,VWS V14.01,2013-08-19 09:05:00,
2013-08-19 05:10:00,74.7,73.8,29.90,East,100,0.0,1.0,97,0.00,,,0.00,VWS V14.01,2013-08-19 09:10:00,
2013-08-19 05:15:00,74.6,74.0,29.90,East,99,0.0,1.0,98,0.00,,,0.00,VWS V14.01,2013-08-19 09:15:00,
2013-08-19 05:20:00,74.6,74.0,29.90,East,99,0.0,1.0,98,0.00,,,0.00,VWS V14.01,2013-08-19 09:20:00,
2013-08-19 05:25:00,74.4,73.8,29.90,East,100,0.0,3.0,98,0.00,,,0.00,VWS V14.01,2013-08-19 09:25:00,
2013-08-19 05:30:00,74.4,73.8,29.91,East,100,0.0,3.0,98,0.00,,,0.00,VWS V14.01,2013-08-19 09:30:00,
2013-08-19 05:35:00,74.6,74.0,29.91,East,98,0.0,0.0,98,0.00,,,0.00,VWS V14.01,2013-08-19 09:35:00,
2013-08-19 05:40:00,74.6,74.0,29.91,East,98,0.0,0.0,98,0.00,,,0.00,VWS V14.01,2013-08-19 09:40:00,
2013-08-19 05:45:00,74.4,73.8,29.90,East,98,0.0,0.0,98,0.00,,,0.00,VWS V14.01,2013-08-19 09:45:00,
2013-08-19 05:50:00,74.4,73.8,29.90,East,100,0.0,0.0,98,0.00,,,0.00,VWS V14.01,2013-08-19 09:50:00,
2013-08-19 05:55:00,74.4,73.8,29.90,East,98,0.0,2.0,98,0.00,,,0.00,VWS V14.01,2013-08-19 09:55:00,
2013-08-19 06:00:00,74.2,73.6,29.90,East,98,0.0,3.0,98,0.00,,,0.00,VWS V14.01,2013-08-19 10:00:00,
2013-08-19 06:05:00,74.2,73.6,29.90,East,99,0.0,1.0,98,0.00,,,0.00,VWS V14.01,2013-08-19 10:05:00,
2013-08-19 06:10:00,74.2,73.6,29.90,East,100,0.0,1.0,98,0.00,,,0.00,VWS V14.01,2013-08-19 10:10:00,
2013-08-19 06:15:00,74.2,73.6,29.90,East,98,0.0,1.0,98,0.00,,,0.00,VWS V14.01,2013-08-19 10:15:00,
2013-08-19 06:20:00,74.2,73.6,29.90,East,98,0.0,1.0,98,0.00,,,0.00,VWS V14.01,2013-08-19 10:20:00,
2013-08-19 06:25:00,74.2,73.6,29.90,East,98,0.0,1.0,98,0.00,,,0.00,VWS V14.01,2013-08-19 10:25:00,
2013-08-19 06:30:00,74.4,73.8,29.90,East,98,0.0,1.0,98,0.00,,,0.00,VWS V14.01,2013-08-19 10:30:00,
2013-08-19 06:35:00,74.6,74.0,29.90,East,98,0.0,1.0,98,0.00,,,0.00,VWS V14.01,2013-08-19 10:35:00,
2013-08-19 06:40:00,74.7,74.1,29.90,East,99,2.0,3.0,98,0.00,,,0.00,VWS V14.01,2013-08-19 10:40:00,
2013-08-19 06:45:00,75.1,74.8,29.90,East,98,1.0,3.0,99,0.00,,,0.00,VWS V14.01,2013-08-19 10:45:00,
2013-08-19 06:50:00,75.3,75.0,29.90,East,100,0.0,3.0,99,0.00,,,0.00,VWS V14.01,2013-08-19 10:50:00,
2013-08-19 06:55:00,75.4,75.1,29.90,North,360,0.0,5.0,99,0.00,,,0.00,VWS V14.01,2013-08-19 10:55:00,
2013-08-19 07:00:00,75.8,75.5,29.90,North,360,0.0,5.0,99,0.00,,,0.00,VWS V14.01,2013-08-19 11:00:00,
2013-08-19 07:05:00,75.8,75.5,29.90,North,360,0.0,1.0,99,0.00,,,0.00,VWS V14.01,2013-08-19 11:05:00,
2013-08-19 07:10:00,75.8,75.5,29.90,North,360,0.0,1.0,99,0.00,,,0.00,VWS V14.01,2013-08-19 11:10:00,
2013-08-19 07:15:00,75.8,75.5,29.90,North,360,0.0,1.0,99,0.00,,,0.00,VWS V14.01,2013-08-19 11:15:00,
2013-08-19 07:20:00,75.8,75.5,29.90,South,190,0.0,1.0,99,0.00,,,0.00,VWS V14.01,2013-08-19 11:20:00,
2013-08-19 07:25:00,75.8,75.5,29.90,South,171,0.0,2.0,99,0.00,,,0.00,VWS V14.01,2013-08-19 11:25:00,
2013-08-19 07:30:00,76.0,75.7,29.91,South,170,0.0,2.0,99,0.00,,,0.00,VWS V14.01,2013-08-19 11:30:00,
2013-08-19 07:35:00,76.1,75.8,29.91,South,171,0.0,2.0,99,0.00,,,0.00,VWS V14.01,2013-08-19 11:35:00,
2013-08-19 07:40:00,76.1,75.8,29.91,South,170,0.0,2.0,99,0.00,,,0.00,VWS V14.01,2013-08-19 11:40:00,
2013-08-19 07:45:00,76.3,76.0,29.91,South,171,0.0,2.0,99,0.00,,,0.00,VWS V14.01,2013-08-19 11:45:00,
2013-08-19 07:50:00,76.5,76.2,29.91,South,169,1.0,2.0,99,0.00,,,0.00,VWS V14.01,2013-08-19 11:50:00,
2013-08-19 07:55:00,76.7,76.4,29.91,SSE,161,0.0,3.0,99,0.00,,,0.00,VWS V14.01,2013-08-19 11:55:00,
2013-08-19 08:00:00,76.8,76.5,29.91,SSE,159,2.0,3.0,99,0.00,,,0.00,VWS V14.01,2013-08-19 12:00:00,
2013-08-19 08:05:00,77.0,76.7,29.91,ESE,103,2.0,3.0,99,0.00,,,0.00,VWS V14.01,2013-08-19 12:05:00,
2013-08-19 08:10:00,77.2,76.9,29.91,East,84,3.0,5.0,99,0.00,,,0.00,VWS V14.01,2013-08-19 12:10:00,
2013-08-19 08:15:00,77.7,77.4,29.92,East,88,3.0,5.0,99,0.00,,,0.00,VWS V14.01,2013-08-19 12:15:00,
2013-08-19 08:20:00,78.1,77.8,29.92,East,88,0.0,5.0,99,0.00,,,0.00,VWS V14.01,2013-08-19 12:20:00,
2013-08-19 08:25:00,78.5,77.9,29.92,SE,124,0.0,5.0,98,0.00,,,0.00,VWS V14.01,2013-08-19 12:25:00,
2013-08-19 08:30:00,79.0,78.1,29.92,ESE,117,0.0,5.0,97,0.00,,,0.00,VWS V14.01,2013-08-19 12:30:00,
2013-08-19 08:35:00,79.4,78.2,29.92,ESE,111,4.0,5.0,96,0.00,,,0.00,VWS V14.01,2013-08-19 12:35:00,
2013-08-19 08:40:00,79.8,77.9,29.92,ESE,102,2.0,5.0,94,0.00,,,0.00,VWS V14.01,2013-08-19 12:40:00,
2013-08-19 08:45:00,79.9,77.4,29.93,ESE,107,3.0,5.0,92,0.00,,,0.00,VWS V14.01,2013-08-19 12:45:00,
2013-08-19 08:50:00,79.9,77.4,29.93,East,94,0.0,7.0,92,0.00,,,0.00,VWS V14.01,2013-08-19 12:50:00,
2013-08-19 08:55:00,80.3,77.4,29.93,ESE,102,0.0,7.0,91,0.00,,,0.00,VWS V14.01,2013-08-19 12:55:00,
2013-08-19 09:00:00,81.1,77.9,29.93,East,96,0.0,7.0,90,0.00,,,0.00,VWS V14.01,2013-08-19 13:00:00,
2013-08-19 09:05:00,80.9,77.4,29.93,ESE,113,0.0,9.0,89,0.00,,,0.00,VWS V14.01,2013-08-19 13:05:00,
2013-08-19 09:10:00,81.1,77.6,29.93,East,85,2.0,9.0,89,0.00,,,0.00,VWS V14.01,2013-08-19 13:10:00,
2013-08-19 09:15:00,82.0,78.1,29.93,SE,143,4.0,10.0,88,0.00,,,0.00,VWS V14.01,2013-08-19 13:15:00,
2013-08-19 09:20:00,82.6,78.0,29.93,East,85,5.0,10.0,86,0.00,,,0.00,VWS V14.01,2013-08-19 13:20:00,
2013-08-19 09:25:00,83.0,78.4,29.93,North,360,3.0,10.0,86,0.00,,,0.00,VWS V14.01,2013-08-19 13:25:00,
2013-08-19 09:30:00,83.2,78.2,29.94,SE,136,0.0,10.0,85,0.00,,,0.00,VWS V14.01,2013-08-19 13:30:00,
2013-08-19 09:35:00,83.0,77.3,29.94,ESE,116,7.0,8.0,83,0.00,,,0.00,VWS V14.01,2013-08-19 13:35:00,
2013-08-19 09:40:00,83.4,77.7,29.94,ENE,78,3.0,8.0,83,0.00,,,0.00,VWS V14.01,2013-08-19 13:40:00,
2013-08-19 09:45:00,83.4,77.0,29.94,SE,143,0.0,8.0,81,0.00,,,0.00,VWS V14.01,2013-08-19 13:45:00,
2013-08-19 09:50:00,83.4,78.1,29.94,SE,126,5.0,8.0,84,0.00,,,0.00,VWS V14.01,2013-08-19 13:50:00,
2013-08-19 09:55:00,83.6,77.5,29.94,ESE,104,5.0,8.0,82,0.00,,,0.00,VWS V14.01,2013-08-19 13:55:00,
2013-08-19 10:00:00,84.0,77.5,29.94,SE,126,3.0,8.0,81,0.00,,,0.00,VWS V14.01,2013-08-19 14:00:00,
2013-08-19 10:05:00,83.6,77.2,29.94,SE,126,1.0,10.0,81,0.00,,,0.00,VWS V14.01,2013-08-19 14:05:00,
2013-08-19 10:10:00,83.6,77.5,29.94,East,92,2.0,10.0,82,0.00,,,0.00,VWS V14.01,2013-08-19 14:10:00,
2013-08-19 10:15:00,83.4,77.3,29.95,SE,130,3.0,10.0,82,0.00,,,0.00,VWS V14.01,2013-08-19 14:15:00,
2013-08-19 10:20:00,83.4,77.0,29.95,ESE,121,3.0,10.0,81,0.00,,,0.00,VWS V14.01,2013-08-19 14:20:00,
2013-08-19 10:25:00,83.8,77.3,29.95,SE,140,5.0,10.0,81,0.00,,,0.00,VWS V14.01,2013-08-19 14:25:00,
2013-08-19 10:30:00,84.1,76.9,29.95,SSE,150,7.0,10.0,79,0.00,,,0.00,VWS V14.01,2013-08-19 14:30:00,
2013-08-19 10:35:00,85.1,77.5,29.95,ESE,107,5.0,7.0,78,0.00,,,0.00,VWS V14.01,2013-08-19 14:35:00,
2013-08-19 10:40:00,85.3,76.5,29.95,SE,129,1.0,11.0,75,0.00,,,0.00,VWS V14.01,2013-08-19 14:40:00,
2013-08-19 10:45:00,86.3,77.0,29.95,ENE,78,4.0,11.0,74,0.00,,,0.00,VWS V14.01,2013-08-19 14:45:00,
2013-08-19 10:50:00,87.0,76.5,29.95,ESE,115,5.0,11.0,71,0.00,,,0.00,VWS V14.01,2013-08-19 14:50:00,
2013-08-19 10:55:00,87.4,77.7,29.95,East,86,2.0,11.0,73,0.00,,,0.00,VWS V14.01,2013-08-19 14:55:00,
2013-08-19 11:00:00,87.6,76.6,29.95,East,101,4.0,11.0,70,0.00,,,0.00,VWS V14.01,2013-08-19 15:00:00,
2013-08-19 11:05:00,88.0,76.1,29.95,ESE,114,3.0,9.0,68,0.00,,,0.00,VWS V14.01,2013-08-19 15:05:00,
2013-08-19 11:10:00,88.2,75.4,29.95,ESE,109,3.0,11.0,66,0.00,,,0.00,VWS V14.01,2013-08-19 15:10:00,
2013-08-19 11:15:00,88.0,76.1,29.95,ESE,115,0.0,11.0,68,0.00,,,0.00,VWS V14.01,2013-08-19 15:15:00,
2013-08-19 11:20:00,87.6,75.7,29.95,ESE,109,0.0,11.0,68,0.00,,,0.00,VWS V14.01,2013-08-19 15:20:00,
2013-08-19 11:25:00,87.6,75.7,29.95,SE,132,0.0,11.0,68,0.00,,,0.00,VWS V14.01,2013-08-19 15:25:00,
2013-08-19 11:30:00,88.6,75.8,29.95,East,87,3.0,11.0,66,0.00,,,0.00,VWS V14.01,2013-08-19 15:30:00,
2013-08-19 11:35:00,89.0,75.2,29.95,SE,128,7.0,8.0,64,0.00,,,0.00,VWS V14.01,2013-08-19 15:35:00,
2013-08-19 11:40:00,88.8,76.0,29.95,SE,133,3.0,9.0,66,0.00,,,0.00,VWS V14.01,2013-08-19 15:40:00,
2013-08-19 11:45:00,88.6,75.8,29.94,SE,130,0.0,9.0,66,0.00,,,0.00,VWS V14.01,2013-08-19 15:45:00,
2013-08-19 11:50:00,88.2,76.8,29.94,East,98,4.0,9.0,69,0.00,,,0.00,VWS V14.01,2013-08-19 15:50:00,
2013-08-19 11:55:00,88.0,75.2,29.94,SE,140,6.0,10.0,66,0.00,,,0.00,VWS V14.01,2013-08-19 15:55:00,
2013-08-19 12:00:00,88.2,76.8,29.94,ESE,117,0.0,10.0,69,0.00,,,0.00,VWS V14.01,2013-08-19 16:00:00,
2013-08-19 12:05:00,88.6,77.6,29.94,SE,133,0.0,7.0,70,0.00,,,0.00,VWS V14.01,2013-08-19 16:05:00,
2013-08-19 12:10:00,89.3,77.8,29.94,North,360,3.0,9.0,69,0.00,,,0.00,VWS V14.01,2013-08-19 16:10:00,
2013-08-19 12:15:00,89.9,75.6,29.94,ENE,61,5.0,9.0,63,0.00,,,0.00,VWS V14.01,2013-08-19 16:15:00,
2013-08-19 12:20:00,90.3,75.5,29.94,East,94,0.0,9.0,62,0.00,,,0.00,VWS V14.01,2013-08-19 16:20:00,
2013-08-19 12:25:00,90.3,76.0,29.94,ESE,116,0.0,9.0,63,0.00,,,0.00,VWS V14.01,2013-08-19 16:25:00,
2013-08-19 12:30:00,90.3,75.0,29.93,SW,229,5.0,10.0,61,0.00,,,0.00,VWS V14.01,2013-08-19 16:30:00,
2013-08-19 12:35:00,90.5,76.2,29.93,East,101,4.0,9.0,63,0.00,,,0.00,VWS V14.01,2013-08-19 16:35:00,
2013-08-19 12:40:00,90.5,76.2,29.93,SE,134,5.0,10.0,63,0.00,,,0.00,VWS V14.01,2013-08-19 16:40:00,
2013-08-19 12:45:00,90.5,73.2,29.93,SSE,163,6.0,11.0,57,0.00,,,0.00,VWS V14.01,2013-08-19 16:45:00,
2013-08-19 12:50:00,90.5,74.7,29.93,ESE,122,4.0,11.0,60,0.00,,,0.00,VWS V14.01,2013-08-19 16:50:00,
2013-08-19 12:55:00,90.7,76.4,29.93,ESE,115,0.0,11.0,63,0.00,,,0.00,VWS V14.01,2013-08-19 16:55:00,
2013-08-19 13:00:00,91.0,76.2,29.92,SE,128,0.0,11.0,62,0.00,,,0.00,VWS V14.01,2013-08-19 17:00:00,
2013-08-19 13:05:00,91.2,75.4,29.92,SE,146,4.0,9.0,60,0.00,,,0.00,VWS V14.01,2013-08-19 17:05:00,
2013-08-19 13:10:00,91.0,75.7,29.92,ESE,121,2.0,9.0,61,0.00,,,0.00,VWS V14.01,2013-08-19 17:10:00,
2013-08-19 13:15:00,91.2,73.3,29.91,South,170,0.0,9.0,56,0.00,,,0.00,VWS V14.01,2013-08-19 17:15:00,
2013-08-19 13:20:00,91.4,74.0,29.91,SE,144,0.0,9.0,57,0.00,,,0.00,VWS V14.01,2013-08-19 17:20:00,
2013-08-19 13:25:00,91.6,74.7,29.91,SSW,208,0.0,10.0,58,0.00,,,0.00,VWS V14.01,2013-08-19 17:25:00,
2013-08-19 13:30:00,91.0,72.6,29.91,SSE,152,1.0,10.0,55,0.00,,,0.00,VWS V14.01,2013-08-19 17:30:00,
2013-08-19 13:35:00,91.4,71.9,29.91,SE,143,0.0,9.0,53,0.00,,,0.00,VWS V14.01,2013-08-19 17:35:00,
2013-08-19 13:40:00,91.2,71.7,29.91,SSW,205,0.0,9.0,53,0.00,,,0.00,VWS V14.01,2013-08-19 17:40:00,
2013-08-19 13:45:00,91.0,73.7,29.91,SE,128,2.0,10.0,57,0.00,,,0.00,VWS V14.01,2013-08-19 17:45:00,
2013-08-19 13:50:00,91.2,74.9,29.91,SSE,156,4.0,10.0,59,0.00,,,0.00,VWS V14.01,2013-08-19 17:50:00,
2013-08-19 13:55:00,91.2,73.8,29.91,South,185,1.0,11.0,57,0.00,,,0.00,VWS V14.01,2013-08-19 17:55:00,
2013-08-19 14:00:00,91.2,73.8,29.91,ESE,120,4.0,11.0,57,0.00,,,0.00,VWS V14.01,2013-08-19 18:00:00,
2013-08-19 14:05:00,91.4,71.9,29.91,SSE,165,1.0,10.0,53,0.00,,,0.00,VWS V14.01,2013-08-19 18:05:00,
2013-08-19 14:10:00,91.4,74.6,29.91,SE,144,1.0,12.0,58,0.00,,,0.00,VWS V14.01,2013-08-19 18:10:00,
2013-08-19 14:15:00,91.6,73.2,29.91,ESE,110,5.0,12.0,55,0.00,,,0.00,VWS V14.01,2013-08-19 18:15:00,
2013-08-19 14:20:00,92.1,73.1,29.91,SE,130,2.0,12.0,54,0.00,,,0.00,VWS V14.01,2013-08-19 18:20:00,
2013-08-19 14:25:00,92.1,75.2,29.91,SE,146,6.0,12.0,58,0.00,,,0.00,VWS V14.01,2013-08-19 18:25:00,
2013-08-19 14:30:00,92.1,73.6,29.89,ENE,74,0.0,12.0,55,0.00,,,0.00,VWS V14.01,2013-08-19 18:30:00,
2013-08-19 14:35:00,92.1,72.5,29.89,SSW,207,0.0,10.0,53,0.00,,,0.00,VWS V14.01,2013-08-19 18:35:00,
2013-08-19 14:40:00,92.1,73.6,29.89,SE,125,1.0,10.0,55,0.00,,,0.00,VWS V14.01,2013-08-19 18:40:00,
2013-08-19 14:45:00,91.6,74.7,29.89,SSE,155,1.0,11.0,58,0.00,,,0.00,VWS V14.01,2013-08-19 18:45:00,
2013-08-19 14:50:00,91.8,75.9,29.89,SE,131,6.0,11.0,60,0.00,,,0.00,VWS V14.01,2013-08-19 18:50:00,
2013-08-19 14:55:00,91.6,74.2,29.89,SE,138,3.0,11.0,57,0.00,,,0.00,VWS V14.01,2013-08-19 18:55:00,
2013-08-19 15:00:00,92.1,73.6,29.88,East,88,4.0,11.0,55,0.00,,,0.00,VWS V14.01,2013-08-19 19:00:00,
2013-08-19 15:05:00,92.1,73.1,29.88,SE,136,2.0,11.0,54,0.00,,,0.00,VWS V14.01,2013-08-19 19:05:00,
2013-08-19 15:10:00,92.7,73.1,29.88,ESE,102,4.0,12.0,53,0.00,,,0.00,VWS V14.01,2013-08-19 19:10:00,
2013-08-19 15:15:00,92.3,72.1,29.87,SSE,148,4.0,12.0,52,0.00,,,0.00,VWS V14.01,2013-08-19 19:15:00,
2013-08-19 15:20:00,91.0,71.5,29.87,ESE,103,2.0,12.0,53,0.00,,,0.00,VWS V14.01,2013-08-19 19:20:00,
2013-08-19 15:25:00,90.7,73.9,29.87,SE,124,4.0,12.0,58,0.00,,,0.00,VWS V14.01,2013-08-19 19:25:00,
2013-08-19 15:30:00,90.5,73.7,29.86,SE,126,3.0,12.0,58,0.00,,,0.00,VWS V14.01,2013-08-19 19:30:00,
2013-08-19 15:35:00,90.1,73.3,29.86,SE,124,0.0,3.0,58,0.00,,,0.00,VWS V14.01,2013-08-19 19:35:00,
2013-08-19 15:40:00,89.9,71.6,29.86,North,360,4.0,6.0,55,0.00,,,0.00,VWS V14.01,2013-08-19 19:40:00,
2013-08-19 15:45:00,89.9,72.1,29.87,ESE,102,5.0,9.0,56,0.00,,,0.00,VWS V14.01,2013-08-19 19:45:00,
2013-08-19 15:50:00,88.8,73.6,29.87,SE,142,5.0,14.0,61,0.00,,,0.00,VWS V14.01,2013-08-19 19:50:00,
2013-08-19 15:55:00,88.0,74.3,29.87,SSE,159,4.0,14.0,64,0.00,,,0.00,VWS V14.01,2013-08-19 19:55:00,
2013-08-19 16:00:00,87.4,75.1,29.87,ESE,115,3.0,14.0,67,0.00,,,0.00,VWS V14.01,2013-08-19 20:00:00,
2013-08-19 16:05:00,87.2,74.5,29.87,SE,131,4.0,11.0,66,0.00,,,0.00,VWS V14.01,2013-08-19 20:05:00,
2013-08-19 16:10:00,87.4,74.7,29.87,ESE,111,3.0,12.0,66,0.00,,,0.00,VWS V14.01,2013-08-19 20:10:00,
2013-08-19 16:15:00,87.4,74.7,29.87,ESE,107,5.0,12.0,66,0.00,,,0.00,VWS V14.01,2013-08-19 20:15:00,
2013-08-19 16:20:00,87.6,74.8,29.87,ESE,107,3.0,12.0,66,0.00,,,0.00,VWS V14.01,2013-08-19 20:20:00,
2013-08-19 16:25:00,87.6,74.4,29.87,East,97,4.0,12.0,65,0.00,,,0.00,VWS V14.01,2013-08-19 20:25:00,
2013-08-19 16:30:00,87.6,73.5,29.86,East,100,0.0,12.0,63,0.00,,,0.00,VWS V14.01,2013-08-19 20:30:00,
2013-08-19 16:35:00,87.8,72.2,29.86,ESE,117,5.0,9.0,60,0.00,,,0.00,VWS V14.01,2013-08-19 20:35:00,
2013-08-19 16:40:00,88.2,72.1,29.86,North,360,0.0,9.0,59,0.00,,,0.00,VWS V14.01,2013-08-19 20:40:00,
2013-08-19 16:45:00,88.2,72.6,29.85,ESE,102,1.0,9.0,60,0.00,,,0.00,VWS V14.01,2013-08-19 20:45:00,
2013-08-19 16:50:00,88.2,73.1,29.85,East,90,2.0,9.0,61,0.00,,,0.00,VWS V14.01,2013-08-19 20:50:00,
2013-08-19 16:55:00,88.2,72.6,29.85,North,360,3.0,9.0,60,0.00,,,0.00,VWS V14.01,2013-08-19 20:55:00,
2013-08-19 17:00:00,88.2,72.6,29.86,East,96,2.0,9.0,60,0.00,,,0.00,VWS V14.01,2013-08-19 21:00:00,
2013-08-19 17:05:00,88.0,73.4,29.86,East,100,9.0,11.0,62,0.00,,,0.00,VWS V14.01,2013-08-19 21:05:00,
2013-08-19 17:10:00,87.6,73.5,29.86,ESE,104,6.0,11.0,63,0.00,,,0.00,VWS V14.01,2013-08-19 21:10:00,
2013-08-19 17:15:00,87.0,73.4,29.86,ESE,117,8.0,11.0,64,0.00,,,0.00,VWS V14.01,2013-08-19 21:15:00,
2013-08-19 17:20:00,86.5,72.9,29.86,ESE,121,7.0,13.0,64,0.00,,,0.00,VWS V14.01,2013-08-19 21:20:00,
2013-08-19 17:25:00,86.3,73.2,29.86,ESE,117,6.0,13.0,65,0.00,,,0.00,VWS V14.01,2013-08-19 21:25:00,
2013-08-19 17:30:00,86.3,74.9,29.86,North,360,7.0,15.0,69,0.00,,,0.00,VWS V14.01,2013-08-19 21:30:00,
2013-08-19 17:35:00,86.3,75.4,29.86,NE,51,11.0,13.0,70,0.00,,,0.00,VWS V14.01,2013-08-19 21:35:00,
2013-08-19 17:40:00,86.1,75.2,29.86,East,92,9.0,14.0,70,0.00,,,0.00,VWS V14.01,2013-08-19 21:40:00,
2013-08-19 17:45:00,86.1,75.6,29.86,ENE,71,11.0,15.0,71,0.00,,,0.00,VWS V14.01,2013-08-19 21:45:00,
2013-08-19 17:50:00,85.9,75.8,29.86,East,96,4.0,15.0,72,0.00,,,0.00,VWS V14.01,2013-08-19 21:50:00,
2013-08-19 17:55:00,85.7,74.8,29.86,SE,128,6.0,15.0,70,0.00,,,0.00,VWS V14.01,2013-08-19 21:55:00,
2013-08-19 18:00:00,85.3,75.2,29.86,ESE,109,9.0,15.0,72,0.00,,,0.00,VWS V14.01,2013-08-19 22:00:00,
2013-08-19 18:05:00,85.3,74.8,29.86,East,91,3.0,10.0,71,0.00,,,0.00,VWS V14.01,2013-08-19 22:05:00,
2013-08-19 18:10:00,85.3,73.6,29.86,ESE,119,3.0,10.0,68,0.00,,,0.00,VWS V14.01,2013-08-19 22:10:00,
2013-08-19 18:15:00,85.1,74.2,29.86,North,360,3.0,10.0,70,0.00,,,0.00,VWS V14.01,2013-08-19 22:15:00,
2013-08-19 18:20:00,84.7,74.3,29.86,NE,46,4.0,10.0,71,0.00,,,0.00,VWS V14.01,2013-08-19 22:20:00,
2013-08-19 18:25:00,84.3,74.3,29.86,North,360,5.0,10.0,72,0.00,,,0.00,VWS V14.01,2013-08-19 22:25:00,
2013-08-19 18:30:00,84.3,74.7,29.87,ENE,77,3.0,10.0,73,0.00,,,0.00,VWS V14.01,2013-08-19 22:30:00,
2013-08-19 18:35:00,84.3,73.9,29.87,ENE,78,2.0,7.0,71,0.00,,,0.00,VWS V14.01,2013-08-19 22:35:00,
2013-08-19 18:40:00,84.1,74.5,29.87,ESE,109,0.0,7.0,73,0.00,,,0.00,VWS V14.01,2013-08-19 22:40:00,
2013-08-19 18:45:00,84.1,74.5,29.87,East,96,3.0,7.0,73,0.00,,,0.00,VWS V14.01,2013-08-19 22:45:00,
2013-08-19 18:50:00,84.1,74.5,29.87,East,96,0.0,7.0,73,0.00,,,0.00,VWS V14.01,2013-08-19 22:50:00,
2013-08-19 18:55:00,83.8,74.6,29.87,East,96,0.0,7.0,74,0.00,,,0.00,VWS V14.01,2013-08-19 22:55:00,
2013-08-19 19:00:00,83.6,74.4,29.88,ESE,114,0.0,7.0,74,0.00,,,0.00,VWS V14.01,2013-08-19 23:00:00,
2013-08-19 19:05:00,83.2,74.5,29.88,ESE,113,0.0,1.0,75,0.00,,,0.00,VWS V14.01,2013-08-19 23:05:00,
2013-08-19 19:10:00,83.0,75.4,29.88,ESE,113,0.0,1.0,78,0.00,,,0.00,VWS V14.01,2013-08-19 23:10:00,
2013-08-19 19:15:00,82.8,74.9,29.88,ESE,112,0.0,1.0,77,0.00,,,0.00,VWS V14.01,2013-08-19 23:15:00,
2013-08-19 19:20:00,82.8,75.6,29.88,ESE,114,0.0,1.0,79,0.00,,,0.00,VWS V14.01,2013-08-19 23:20:00,
2013-08-19 19:25:00,82.4,74.9,29.88,SSE,151,0.0,3.0,78,0.00,,,0.00,VWS V14.01,2013-08-19 23:25:00,
2013-08-19 19:30:00,81.8,73.9,29.90,North,360,6.0,16.0,77,0.00,,,0.00,VWS V14.01,2013-08-19 23:30:00,
2013-08-19 19:35:00,80.3,72.8,29.90,West,264,10.0,19.0,78,0.00,,,0.00,VWS V14.01,2013-08-19 23:35:00,
2013-08-19 19:40:00,79.4,72.3,29.90,WSW,240,1.0,19.0,79,0.00,,,0.00,VWS V14.01,2013-08-19 23:40:00,
2013-08-19 19:45:00,78.6,72.3,29.91,SSW,198,3.0,19.0,81,0.00,,,0.00,VWS V14.01,2013-08-19 23:45:00,
2013-08-19 19:50:00,78.1,72.5,29.91,SW,214,4.0,19.0,83,0.00,,,0.00,VWS V14.01,2013-08-19 23:50:00,
2013-08-19 19:55:00,77.6,73.1,29.91,SW,228,0.0,19.0,86,0.00,,,0.00,VWS V14.01,2013-08-19 23:55:00,
2013-08-19 20:00:00,77.0,73.2,29.91,SW,232,7.0,19.0,88,0.00,,,0.00,VWS V14.01,2013-08-20 00:00:00,
2013-08-19 20:05:00,76.3,72.8,29.91,WSW,252,0.0,7.0,89,0.00,,,0.00,VWS V14.01,2013-08-20 00:05:00,
2013-08-19 20:10:00,75.8,72.7,29.91,SW,228,2.0,7.0,90,0.00,,,0.00,VWS V14.01,2013-08-20 00:10:00,
2013-08-19 20:15:00,75.4,72.3,29.91,SW,232,1.0,7.0,90,0.00,,,0.00,VWS V14.01,2013-08-20 00:15:00,
2013-08-19 20:20:00,75.3,72.5,29.91,SW,228,0.0,7.0,91,0.00,,,0.00,VWS V14.01,2013-08-20 00:20:00,
2013-08-19 20:25:00,75.3,72.8,29.91,SW,229,0.0,7.0,92,0.00,,,0.00,VWS V14.01,2013-08-20 00:25:00,
2013-08-19 20:30:00,75.1,72.3,29.91,SW,233,0.0,7.0,91,0.00,,,0.00,VWS V14.01,2013-08-20 00:30:00,
2013-08-19 20:35:00,74.9,72.1,29.91,North,360,0.0,3.0,91,0.00,,,0.00,VWS V14.01,2013-08-20 00:35:00,
2013-08-19 20:40:00,74.7,71.9,29.91,SSW,211,0.0,6.0,91,0.00,,,0.00,VWS V14.01,2013-08-20 00:40:00,
2013-08-19 20:45:00,74.7,71.6,29.92,SW,219,0.0,7.0,90,0.00,,,0.00,VWS V14.01,2013-08-20 00:45:00,
2013-08-19 20:50:00,74.7,71.6,29.92,SSW,213,0.0,7.0,90,0.00,,,0.00,VWS V14.01,2013-08-20 00:50:00,
2013-08-19 20:55:00,74.6,71.2,29.92,SSW,213,0.0,7.0,89,0.00,,,0.00,VWS V14.01,2013-08-20 00:55:00,
2013-08-19 21:00:00,74.6,70.8,29.92,SSW,213,0.0,7.0,88,0.00,,,0.00,VWS V14.01,2013-08-20 01:00:00,
2013-08-19 21:05:00,74.6,70.8,29.92,SW,215,0.0,1.0,88,0.00,,,0.00,VWS V14.01,2013-08-20 01:05:00,
2013-08-19 21:10:00,74.6,71.2,29.92,SW,215,0.0,1.0,89,0.00,,,0.00,VWS V14.01,2013-08-20 01:10:00,
2013-08-19 21:15:00,74.4,71.3,29.91,SW,215,0.0,1.0,90,0.00,,,0.00,VWS V14.01,2013-08-20 01:15:00,
2013-08-19 21:20:00,74.4,70.9,29.91,SSW,213,0.0,1.0,89,0.00,,,0.00,VWS V14.01,2013-08-20 01:20:00,
2013-08-19 21:25:00,74.2,71.1,29.91,SSW,213,0.0,1.0,90,0.00,,,0.00,VWS V14.01,2013-08-20 01:25:00,
2013-08-19 21:30:00,74.2,71.4,29.91,SSW,212,0.0,1.0,91,0.00,,,0.00,VWS V14.01,2013-08-20 01:30:00,
2013-08-19 21:35:00,74.2,71.4,29.91,SW,214,0.0,0.0,91,0.00,,,0.00,VWS V14.01,2013-08-20 01:35:00,
2013-08-19 21:40:00,74.2,71.4,29.91,SSW,213,0.0,0.0,91,0.00,,,0.00,VWS V14.01,2013-08-20 01:40:00,
2013-08-19 21:45:00,74.2,71.4,29.91,SW,215,0.0,1.0,91,0.00,,,0.00,VWS V14.01,2013-08-20 01:45:00,
2013-08-19 21:50:00,74.0,71.2,29.91,SW,214,0.0,1.0,91,0.00,,,0.00,VWS V14.01,2013-08-20 01:50:00,
2013-08-19 21:55:00,74.0,71.2,29.91,SW,214,0.0,1.0,91,0.00,,,0.00,VWS V14.01,2013-08-20 01:55:00,
2013-08-19 22:00:00,74.0,71.5,29.91,SSW,213,0.0,1.0,92,0.00,,,0.00,VWS V14.01,2013-08-20 02:00:00,
2013-08-19 22:05:00,73.9,71.4,29.91,SSW,213,0.0,0.0,92,0.00,,,0.00,VWS V14.01,2013-08-20 02:05:00,
2013-08-19 22:10:00,73.9,71.4,29.91,North,355,0.0,4.0,92,0.00,,,0.00,VWS V14.01,2013-08-20 02:10:00,
2013-08-19 22:15:00,73.7,70.9,29.91,NNE,19,0.0,6.0,91,0.00,,,0.00,VWS V14.01,2013-08-20 02:15:00,
2013-08-19 22:20:00,73.7,70.9,29.91,NNE,21,0.0,6.0,91,0.00,,,0.00,VWS V14.01,2013-08-20 02:20:00,
2013-08-19 22:25:00,73.7,70.9,29.91,NNE,20,0.0,6.0,91,0.00,,,0.00,VWS V14.01,2013-08-20 02:25:00,
2013-08-19 22:30:00,73.7,70.9,29.91,NNE,21,0.0,6.0,91,0.00,,,0.00,VWS V14.01,2013-08-20 02:30:00,
2013-08-19 22:35:00,73.7,70.9,29.92,NNE,20,0.0,1.0,91,0.00,,,0.00,VWS V14.01,2013-08-20 02:35:00,
2013-08-19 22:40:00,73.5,70.7,29.92,NNE,21,0.0,1.0,91,0.00,,,0.00,VWS V14.01,2013-08-20 02:40:00,
2013-08-19 22:45:00,73.5,70.7,29.92,NNE,20,0.0,2.0,91,0.00,,,0.00,VWS V14.01,2013-08-20 02:45:00,
2013-08-19 22:50:00,73.7,71.2,29.93,NNE,21,0.0,2.0,92,0.00,,,0.00,VWS V14.01,2013-08-20 02:50:00,
2013-08-19 22:55:00,73.5,71.0,29.93,NNE,21,0.0,2.0,92,0.00,,,0.00,VWS V14.01,2013-08-20 02:55:00,
2013-08-19 23:00:00,73.5,71.0,29.93,NNE,21,0.0,2.0,92,0.00,,,0.00,VWS V14.01,2013-08-20 03:00:00,
2013-08-19 23:05:00,73.7,71.2,29.93,NNE,21,0.0,0.0,92,0.00,,,0.00,VWS V14.01,2013-08-20 03:05:00,
2013-08-19 23:10:00,73.5,71.0,29.93,NNE,20,0.0,0.0,92,0.00,,,0.00,VWS V14.01,2013-08-20 03:10:00,
2013-08-19 23:15:00,73.7,71.2,29.93,NNE,21,0.0,0.0,92,0.00,,,0.00,VWS V14.01,2013-08-20 03:15:00,
2013-08-19 23:20:00,73.5,71.0,29.94,NNE,20,0.0,1.0,92,0.00,,,0.00,VWS V14.01,2013-08-20 03:20:00,
2013-08-19 23:25:00,73.5,71.4,29.94,NNE,20,0.0,1.0,93,0.00,,,0.00,VWS V14.01,2013-08-20 03:25:00,
2013-08-19 23:30:00,73.5,71.4,29.94,NNE,21,0.0,1.0,93,0.00,,,0.00,VWS V14.01,2013-08-20 03:30:00,
2013-08-19 23:35:00,73.3,71.2,29.95,NNE,20,0.0,0.0,93,0.00,,,0.00,VWS V14.01,2013-08-20 03:35:00,
2013-08-19 23:40:00,73.3,71.2,29.95,NNE,20,0.0,0.0,93,0.00,,,0.00,VWS V14.01,2013-08-20 03:40:00,
2013-08-19 23:45:00,73.2,71.1,29.95,NNE,20,0.0,0.0,93,0.00,,,0.00,VWS V14.01,2013-08-20 03:45:00,
2013-08-19 23:49:00,73.2,71.4,29.95,NNE,21,0.0,0.0,94,0.00,,,0.00,VWS V14.01,2013-08-20 03:49:00,
2013-08-19 23:54:00,73.2,71.4,29.95,NNE,20,0.0,0.0,94,0.00,,,0.00,VWS V14.01,2013-08-20 03:54:00,
2013-08-19 23:59:00,73.2,71.4,29.95,NNE,20,0.0,0.0,94,0.00,,,0.00,VWS V14.01,2013-08-20 03:59:00,